Time,TemperatureF,DewpointF,PressureIn,WindDirection,WindDirectionDegrees,WindSpeedMPH,WindSpeedGustMPH,Humidity,HourlyPrecipIn,Conditions,Clouds,dailyrainin,SolarRadiationWatts/m^2,SoftwareType,DateUTC
2013-03-26 00:22:00,41.0,17.0,-100.00,South,184,6.0,14.0,37,0.00,,,0.00,1.000000,,2013-03-26 07:22:00,
2013-03-26 00:32:00,41.0,17.0,-100.00,South,184,6.0,14.0,37,0.00,,,0.00,1.000000,,2013-03-26 07:32:00,
2013-03-26 00:42:00,41.0,17.0,-100.00,South,184,6.0,14.0,37,0.00,,,0.00,1.000000,,2013-03-26 07:42:00,
2013-03-26 00:51:00,39.0,26.0,-100.00,WSW,239,8.0,21.0,60,0.00,,,0.00,1.000000,,2013-03-26 07:51:00,
2013-03-26 01:12:00,39.0,26.0,-100.00,WSW,239,8.0,21.0,60,0.00,,,0.00,1.000000,,2013-03-26 08:12:00,
2013-03-26 01:22:00,39.0,26.0,-100.00,WSW,239,8.0,21.0,60,0.00,,,0.00,1.000000,,2013-03-26 08:22:00,
2013-03-26 01:32:00,39.0,26.0,-100.00,WSW,239,8.0,21.0,60,0.00,,,0.00,1.000000,,2013-03-26 08:32:00,
2013-03-26 01:42:00,39.0,26.0,-100.00,WSW,239,8.0,21.0,60,0.00,,,0.00,1.000000,,2013-03-26 08:42:00,
2013-03-26 01:51:00,41.0,23.0,-100.00,SW,229,9.0,24.0,48,0.00,,,0.00,1.000000,,2013-03-26 08:51:00,
2013-03-26 02:22:00,41.0,23.0,-100.00,SW,229,9.0,24.0,48,0.00,,,0.00,1.000000,,2013-03-26 09:22:00,
2013-03-26 02:32:00,41.0,23.0,-100.00,SW,229,9.0,24.0,48,0.00,,,0.00,1.000000,,2013-03-26 09:32:00,
2013-03-26 02:42:00,41.0,23.0,-100.00,SW,229,9.0,24.0,48,0.00,,,0.00,1.000000,,2013-03-26 09:42:00,
2013-03-26 02:51:00,37.0,24.0,-100.00,SSW,209,11.0,30.0,58,0.00,,,0.00,1.000000,,2013-03-26 09:51:00,
2013-03-26 03:12:00,37.0,24.0,-100.00,SSW,209,11.0,30.0,58,0.00,,,0.00,1.000000,,2013-03-26 10:12:00,
2013-03-26 03:22:00,37.0,24.0,-100.00,SSW,209,11.0,30.0,58,0.00,,,0.00,1.000000,,2013-03-26 10:22:00,
2013-03-26 03:32:00,37.0,24.0,-100.00,SSW,209,11.0,30.0,58,0.00,,,0.00,1.000000,,2013-03-26 10:32:00,
2013-03-26 03:42:00,37.0,24.0,-100.00,SSW,209,11.0,30.0,58,0.00,,,0.00,1.000000,,2013-03-26 10:42:00,
2013-03-26 03:51:00,39.0,17.0,-100.00,SSW,193,5.0,23.0,41,0.00,,,0.00,1.000000,,2013-03-26 10:51:00,
2013-03-26 04:12:00,39.0,17.0,-100.00,SSW,193,5.0,23.0,41,0.00,,,0.00,1.000000,,2013-03-26 11:12:00,
2013-03-26 04:22:00,39.0,17.0,-100.00,SSW,193,5.0,23.0,41,0.00,,,0.00,1.000000,,2013-03-26 11:22:00,
2013-03-26 04:32:00,39.0,17.0,-100.00,SSW,193,5.0,23.0,41,0.00,,,0.00,1.000000,,2013-03-26 11:32:00,
2013-03-26 04:42:00,39.0,17.0,-100.00,SSW,193,5.0,23.0,41,0.00,,,0.00,1.000000,,2013-03-26 11:42:00,
2013-03-26 04:51:00,39.0,16.0,-100.00,South,170,5.0,15.0,39,0.00,,,0.00,1.000000,,2013-03-26 11:51:00,
2013-03-26 05:21:00,39.0,16.0,-100.00,South,170,5.0,15.0,39,0.00,,,0.00,1.000000,,2013-03-26 12:21:00,
2013-03-26 05:32:00,39.0,16.0,-100.00,South,170,5.0,15.0,39,0.00,,,0.00,1.000000,,2013-03-26 12:32:00,
2013-03-26 05:42:00,39.0,16.0,-100.00,South,170,5.0,15.0,39,0.00,,,0.00,1.000000,,2013-03-26 12:42:00,
2013-03-26 05:51:00,38.0,15.0,-100.00,South,171,4.0,14.0,38,0.00,,,0.00,1.000000,,2013-03-26 12:51:00,
2013-03-26 06:22:00,38.0,15.0,-100.00,South,171,4.0,14.0,38,0.00,,,0.00,1.000000,,2013-03-26 13:22:00,
2013-03-26 06:32:00,38.0,15.0,-100.00,South,171,4.0,14.0,38,0.00,,,0.00,1.000000,,2013-03-26 13:32:00,
2013-03-26 06:42:00,38.0,15.0,-100.00,South,171,4.0,14.0,38,0.00,,,0.00,1.000000,,2013-03-26 13:42:00,
2013-03-26 07:51:00,39.0,14.0,-100.00,South,180,3.0,8.0,36,-99.99,,,0.00,26.000000,,2013-03-26 14:51:00,
2013-03-26 08:22:00,39.0,14.0,-100.00,South,180,3.0,8.0,36,-99.99,,,0.00,26.000000,,2013-03-26 15:22:00,
2013-03-26 08:33:00,39.0,14.0,-100.00,South,180,3.0,8.0,36,-99.99,,,0.00,26.000000,,2013-03-26 15:33:00,
2013-03-26 08:42:00,39.0,14.0,-100.00,South,180,3.0,8.0,36,-99.99,,,0.00,26.000000,,2013-03-26 15:42:00,
2013-03-26 08:51:00,41.0,19.0,-100.00,SW,221,3.0,16.0,40,0.00,,,0.00,106.000000,,2013-03-26 15:51:00,
2013-03-26 09:12:00,41.0,19.0,-100.00,SW,221,3.0,16.0,40,0.00,,,0.00,106.000000,,2013-03-26 16:12:00,
2013-03-26 09:22:00,41.0,19.0,-100.00,SW,221,3.0,16.0,40,0.00,,,0.00,106.000000,,2013-03-26 16:22:00,
2013-03-26 09:32:00,41.0,19.0,-100.00,SW,221,3.0,16.0,40,0.00,,,0.00,106.000000,,2013-03-26 16:32:00,
2013-03-26 09:42:00,41.0,19.0,-100.00,SW,221,3.0,16.0,40,0.00,,,0.00,106.000000,,2013-03-26 16:42:00,
2013-03-26 09:51:00,43.0,23.0,-100.00,SSW,197,4.0,12.0,45,0.00,,,0.00,242.000000,,2013-03-26 16:51:00,
2013-03-26 10:22:00,43.0,23.0,-100.00,SSW,197,4.0,12.0,45,0.00,,,0.00,242.000000,,2013-03-26 17:22:00,
2013-03-26 10:32:00,43.0,23.0,-100.00,SSW,197,4.0,12.0,45,0.00,,,0.00,242.000000,,2013-03-26 17:32:00,
2013-03-26 10:42:00,43.0,23.0,-100.00,SSW,197,4.0,12.0,45,0.00,,,0.00,242.000000,,2013-03-26 17:42:00,
2013-03-26 10:51:00,45.0,28.0,-100.00,SSW,205,4.0,13.0,52,0.00,,,0.00,392.000000,,2013-03-26 17:51:00,
2013-03-26 11:23:00,45.0,28.0,-100.00,SSW,205,4.0,13.0,52,0.00,,,0.00,392.000000,,2013-03-26 18:23:00,
2013-03-26 11:33:00,45.0,28.0,-100.00,SSW,205,4.0,13.0,52,0.00,,,0.00,392.000000,,2013-03-26 18:33:00,
2013-03-26 11:42:00,45.0,28.0,-100.00,SSW,205,4.0,13.0,52,0.00,,,0.00,392.000000,,2013-03-26 18:42:00,
2013-03-26 11:51:00,45.0,34.0,-100.00,SSW,212,4.0,10.0,66,0.00,,,0.00,509.000000,,2013-03-26 18:51:00,
2013-03-26 12:22:00,45.0,34.0,-100.00,SSW,212,4.0,10.0,66,0.00,,,0.00,509.000000,,2013-03-26 19:22:00,
2013-03-26 12:32:00,45.0,34.0,-100.00,SSW,212,4.0,10.0,66,0.00,,,0.00,509.000000,,2013-03-26 19:32:00,
2013-03-26 12:42:00,45.0,34.0,-100.00,SSW,212,4.0,10.0,66,0.00,,,0.00,509.000000,,2013-03-26 19:42:00,
2013-03-26 12:51:00,48.0,33.0,-100.00,SW,231,7.0,20.0,56,0.00,,,0.00,725.000000,,2013-03-26 19:51:00,
2013-03-26 13:22:00,48.0,33.0,-100.00,SW,231,7.0,20.0,56,0.00,,,0.00,725.000000,,2013-03-26 20:22:00,
2013-03-26 13:32:00,48.0,33.0,-100.00,SW,231,7.0,20.0,56,0.00,,,0.00,725.000000,,2013-03-26 20:32:00,
2013-03-26 13:42:00,48.0,33.0,-100.00,SW,231,7.0,20.0,56,0.00,,,0.00,725.000000,,2013-03-26 20:42:00,
2013-03-26 13:51:00,47.0,31.0,-100.00,SSW,205,7.0,16.0,54,0.00,,,0.00,637.000000,,2013-03-26 20:51:00,
2013-03-26 14:22:00,47.0,31.0,-100.00,SSW,205,7.0,16.0,54,0.00,,,0.00,637.000000,,2013-03-26 21:22:00,
2013-03-26 14:32:00,47.0,31.0,-100.00,SSW,205,7.0,16.0,54,0.00,,,0.00,637.000000,,2013-03-26 21:32:00,
2013-03-26 14:42:00,47.0,31.0,-100.00,SSW,205,7.0,16.0,54,0.00,,,0.00,637.000000,,2013-03-26 21:42:00,
2013-03-26 14:51:00,46.0,32.0,-100.00,SW,221,6.0,21.0,59,0.00,,,0.00,558.000000,,2013-03-26 21:51:00,
2013-03-26 15:22:00,46.0,32.0,-100.00,SW,221,6.0,21.0,59,0.00,,,0.00,558.000000,,2013-03-26 22:22:00,
2013-03-26 15:33:00,46.0,32.0,-100.00,SW,221,6.0,21.0,59,0.00,,,0.00,558.000000,,2013-03-26 22:33:00,
2013-03-26 15:42:00,46.0,32.0,-100.00,SW,221,6.0,21.0,59,0.00,,,0.00,558.000000,,2013-03-26 22:42:00,
2013-03-26 15:51:00,47.0,32.0,-100.00,SW,228,5.0,14.0,55,0.01,,,0.01,511.000000,,2013-03-26 22:51:00,
2013-03-26 16:10:00,47.0,32.0,-100.00,SW,228,5.0,14.0,55,0.01,,,0.01,511.000000,,2013-03-26 23:10:00,
2013-03-26 16:22:00,47.0,32.0,-100.00,SW,228,5.0,14.0,55,0.01,,,0.01,511.000000,,2013-03-26 23:22:00,
2013-03-26 16:31:00,47.0,32.0,-100.00,SW,228,5.0,14.0,55,0.01,,,0.01,511.000000,,2013-03-26 23:31:00,
2013-03-26 16:42:00,47.0,32.0,-100.00,SW,228,5.0,14.0,55,0.01,,,0.01,511.000000,,2013-03-26 23:42:00,
2013-03-26 16:51:00,43.0,36.0,-100.00,SSW,207,5.0,15.0,77,0.02,,,0.03,318.000000,,2013-03-26 23:51:00,
2013-03-26 17:12:00,43.0,36.0,-100.00,SSW,207,5.0,15.0,77,0.02,,,0.03,318.000000,,2013-03-27 00:12:00,
2013-03-26 17:22:00,43.0,36.0,-100.00,SSW,207,5.0,15.0,77,0.02,,,0.03,318.000000,,2013-03-27 00:22:00,
2013-03-26 17:32:00,43.0,36.0,-100.00,SSW,207,5.0,15.0,77,0.02,,,0.03,318.000000,,2013-03-27 00:32:00,
2013-03-26 17:42:00,43.0,36.0,-100.00,SSW,207,5.0,15.0,77,0.02,,,0.03,318.000000,,2013-03-27 00:42:00,
2013-03-26 17:51:00,43.0,33.0,-100.00,SSW,212,5.0,10.0,67,0.00,,,0.03,87.000000,,2013-03-27 00:51:00,
2013-03-26 18:12:00,43.0,33.0,-100.00,SSW,212,5.0,10.0,67,0.00,,,0.03,87.000000,,2013-03-27 01:12:00,
2013-03-26 18:22:00,43.0,33.0,-100.00,SSW,212,5.0,10.0,67,0.00,,,0.03,87.000000,,2013-03-27 01:22:00,
2013-03-26 18:32:00,43.0,33.0,-100.00,SSW,212,5.0,10.0,67,0.00,,,0.03,87.000000,,2013-03-27 01:32:00,
2013-03-26 18:42:00,43.0,33.0,-100.00,SSW,212,5.0,10.0,67,0.00,,,0.03,87.000000,,2013-03-27 01:42:00,
2013-03-26 18:51:00,42.0,32.0,-100.00,SSW,199,4.0,10.0,68,0.00,,,0.03,27.000000,,2013-03-27 01:51:00,
2013-03-26 19:12:00,42.0,32.0,-100.00,SSW,199,4.0,10.0,68,0.00,,,0.03,27.000000,,2013-03-27 02:12:00,
2013-03-26 19:22:00,42.0,32.0,-100.00,SSW,199,4.0,10.0,68,0.00,,,0.03,27.000000,,2013-03-27 02:22:00,
2013-03-26 19:32:00,42.0,32.0,-100.00,SSW,199,4.0,10.0,68,0.00,,,0.03,27.000000,,2013-03-27 02:32:00,
2013-03-26 19:42:00,42.0,32.0,-100.00,SSW,199,4.0,10.0,68,0.00,,,0.03,27.000000,,2013-03-27 02:42:00,
2013-03-26 19:51:00,41.0,33.0,-100.00,SSW,203,4.0,8.0,73,0.00,,,0.03,5.000000,,2013-03-27 02:51:00,
2013-03-26 20:22:00,41.0,33.0,-100.00,SSW,203,4.0,8.0,73,0.00,,,0.03,5.000000,,2013-03-27 03:22:00,
2013-03-26 20:33:00,41.0,33.0,-100.00,SSW,203,4.0,8.0,73,0.00,,,0.03,5.000000,,2013-03-27 03:33:00,
2013-03-26 20:42:00,41.0,33.0,-100.00,SSW,203,4.0,8.0,73,0.00,,,0.03,5.000000,,2013-03-27 03:42:00,
2013-03-26 20:51:00,41.0,32.0,-100.00,SSW,206,4.0,10.0,71,0.00,,,0.03,1.000000,,2013-03-27 03:51:00,
2013-03-26 21:23:00,41.0,32.0,-100.00,SSW,206,4.0,10.0,71,0.00,,,0.03,1.000000,,2013-03-27 04:23:00,
2013-03-26 21:33:00,41.0,32.0,-100.00,SSW,206,4.0,10.0,71,0.00,,,0.03,1.000000,,2013-03-27 04:33:00,
2013-03-26 21:42:00,41.0,32.0,-100.00,SSW,206,4.0,10.0,71,0.00,,,0.03,1.000000,,2013-03-27 04:42:00,
2013-03-26 21:51:00,39.0,33.0,-100.00,SW,227,5.0,11.0,79,0.01,,,0.04,1.000000,,2013-03-27 04:51:00,
2013-03-26 22:12:00,39.0,33.0,-100.00,SW,227,5.0,11.0,79,0.01,,,0.04,1.000000,,2013-03-27 05:12:00,
2013-03-26 22:22:00,39.0,33.0,-100.00,SW,227,5.0,11.0,79,0.01,,,0.04,1.000000,,2013-03-27 05:22:00,
2013-03-26 22:32:00,39.0,33.0,-100.00,SW,227,5.0,11.0,79,0.01,,,0.04,1.000000,,2013-03-27 05:32:00,
2013-03-26 22:42:00,39.0,33.0,-100.00,SW,227,5.0,11.0,79,0.01,,,0.04,1.000000,,2013-03-27 05:42:00,
2013-03-26 22:51:00,40.0,32.0,-100.00,SSW,199,4.0,11.0,73,0.00,,,0.04,1.000000,,2013-03-27 05:51:00,
2013-03-26 23:12:00,40.0,32.0,-100.00,SSW,199,4.0,11.0,73,0.00,,,0.04,1.000000,,2013-03-27 06:12:00,
2013-03-26 23:22:00,40.0,32.0,-100.00,SSW,199,4.0,11.0,73,0.00,,,0.04,1.000000,,2013-03-27 06:22:00,
2013-03-26 23:32:00,40.0,32.0,-100.00,SSW,199,4.0,11.0,73,0.00,,,0.04,1.000000,,2013-03-27 06:32:00,
2013-03-26 23:42:00,40.0,32.0,-100.00,SSW,199,4.0,11.0,73,0.00,,,0.04,1.000000,,2013-03-27 06:42:00,
2013-03-26 23:51:00,40.0,31.0,-100.00,SW,216,5.0,10.0,71,0.00,,,0.04,1.000000,,2013-03-27 06:51:00,